sensor_id;sensor_type;location;lat;lon;timestamp;P1;durP1;ratioP1;P2;durP2;ratioP2
57303;SDS011;43150;50.986;18.208;2023-02-15T00:00:33;36.50;;;20.50;;
57303;SDS011;43150;50.986;18.208;2023-02-15T00:02:59;27.40;;;16.30;;
57303;SDS011;43150;50.986;18.208;2023-02-15T00:05:24;37.00;;;20.60;;
57303;SDS011;43150;50.986;18.208;2023-02-15T00:07:49;37.70;;;21.40;;
57303;SDS011;43150;50.986;18.208;2023-02-15T00:10:15;32.20;;;18.80;;
57303;SDS011;43150;50.986;18.208;2023-02-15T00:12:43;26.00;;;16.10;;
57303;SDS011;43150;50.986;18.208;2023-02-15T00:15:10;29.20;;;16.90;;
57303;SDS011;43150;50.986;18.208;2023-02-15T00:17:38;24.30;;;14.80;;
57303;SDS011;43150;50.986;18.208;2023-02-15T00:20:04;27.20;;;15.60;;
57303;SDS011;43150;50.986;18.208;2023-02-15T00:22:29;22.80;;;15.40;;
57303;SDS011;43150;50.986;18.208;2023-02-15T00:24:55;22.40;;;14.60;;
57303;SDS011;43150;50.986;18.208;2023-02-15T00:27:21;24.60;;;14.20;;
57303;SDS011;43150;50.986;18.208;2023-02-15T00:29:46;29.00;;;16.90;;
57303;SDS011;43150;50.986;18.208;2023-02-15T00:32:12;31.40;;;16.80;;
57303;SDS011;43150;50.986;18.208;2023-02-15T00:34:39;24.80;;;15.00;;
57303;SDS011;43150;50.986;18.208;2023-02-15T00:37:06;26.00;;;15.70;;
57303;SDS011;43150;50.986;18.208;2023-02-15T00:39:31;26.30;;;16.70;;
57303;SDS011;43150;50.986;18.208;2023-02-15T00:41:57;27.20;;;15.80;;
57303;SDS011;43150;50.986;18.208;2023-02-15T00:44:22;27.90;;;16.00;;
57303;SDS011;43150;50.986;18.208;2023-02-15T00:46:51;26.00;;;14.70;;
57303;SDS011;43150;50.986;18.208;2023-02-15T00:49:17;22.90;;;13.50;;
57303;SDS011;43150;50.986;18.208;2023-02-15T00:51:43;20.50;;;13.00;;
57303;SDS011;43150;50.986;18.208;2023-02-15T00:54:08;22.70;;;13.60;;
57303;SDS011;43150;50.986;18.208;2023-02-15T00:56:34;25.10;;;14.70;;
57303;SDS011;43150;50.986;18.208;2023-02-15T00:58:59;28.30;;;17.10;;
57303;SDS011;43150;50.986;18.208;2023-02-15T01:01:25;26.60;;;16.00;;
57303;SDS011;43150;50.986;18.208;2023-02-15T01:03:51;26.80;;;16.00;;
57303;SDS011;43150;50.986;18.208;2023-02-15T01:06:16;27.30;;;14.40;;
57303;SDS011;43150;50.986;18.208;2023-02-15T01:08:43;18.90;;;13.10;;
57303;SDS011;43150;50.986;18.208;2023-02-15T01:11:10;24.40;;;14.70;;
57303;SDS011;43150;50.986;18.208;2023-02-15T01:13:36;26.10;;;15.60;;
57303;SDS011;43150;50.986;18.208;2023-02-15T01:16:02;21.20;;;13.60;;
57303;SDS011;43150;50.986;18.208;2023-02-15T01:18:28;24.30;;;15.10;;
57303;SDS011;43150;50.986;18.208;2023-02-15T01:20:55;29.50;;;17.00;;
57303;SDS011;43150;50.986;18.208;2023-02-15T01:23:20;32.30;;;17.80;;
57303;SDS011;43150;50.986;18.208;2023-02-15T01:25:46;28.60;;;17.00;;
57303;SDS011;43150;50.986;18.208;2023-02-15T01:28:11;29.00;;;16.10;;
57303;SDS011;43150;50.986;18.208;2023-02-15T01:30:37;25.00;;;15.40;;
57303;SDS011;43150;50.986;18.208;2023-02-15T01:33:03;27.70;;;15.60;;
57303;SDS011;43150;50.986;18.208;2023-02-15T01:35:28;30.30;;;15.70;;
57303;SDS011;43150;50.986;18.208;2023-02-15T01:37:54;25.60;;;14.50;;
57303;SDS011;43150;50.986;18.208;2023-02-15T01:40:23;28.50;;;15.40;;
57303;SDS011;43150;50.986;18.208;2023-02-15T01:42:50;26.40;;;15.80;;
57303;SDS011;43150;50.986;18.208;2023-02-15T01:45:20;28.60;;;16.10;;
57303;SDS011;43150;50.986;18.208;2023-02-15T01:50:29;29.90;;;17.00;;
57303;SDS011;43150;50.986;18.208;2023-02-15T01:53:02;26.90;;;15.90;;
57303;SDS011;43150;50.986;18.208;2023-02-15T01:55:31;33.30;;;17.50;;
57303;SDS011;43150;50.986;18.208;2023-02-15T01:57:58;28.60;;;17.90;;
57303;SDS011;43150;50.986;18.208;2023-02-15T02:00:23;28.30;;;17.20;;
57303;SDS011;43150;50.986;18.208;2023-02-15T02:02:49;26.20;;;16.70;;
57303;SDS011;43150;50.986;18.208;2023-02-15T02:05:16;32.30;;;17.80;;
57303;SDS011;43150;50.986;18.208;2023-02-15T02:07:43;31.50;;;19.60;;
57303;SDS011;43150;50.986;18.208;2023-02-15T02:10:14;27.80;;;16.80;;
57303;SDS011;43150;50.986;18.208;2023-02-15T02:12:40;24.70;;;13.90;;
57303;SDS011;43150;50.986;18.208;2023-02-15T02:15:07;28.90;;;17.00;;
57303;SDS011;43150;50.986;18.208;2023-02-15T02:25:05;30.50;;;18.60;;
57303;SDS011;43150;50.986;18.208;2023-02-15T02:27:41;30.70;;;17.70;;
57303;SDS011;43150;50.986;18.208;2023-02-15T02:35:35;26.80;;;16.70;;
57303;SDS011;43150;50.986;18.208;2023-02-15T02:38:05;27.00;;;16.40;;
57303;SDS011;43150;50.986;18.208;2023-02-15T02:40:43;27.80;;;17.80;;
57303;SDS011;43150;50.986;18.208;2023-02-15T02:48:24;28.40;;;17.20;;
57303;SDS011;43150;50.986;18.208;2023-02-15T02:50:51;21.20;;;14.20;;
57303;SDS011;43150;50.986;18.208;2023-02-15T02:53:16;27.20;;;17.20;;
57303;SDS011;43150;50.986;18.208;2023-02-15T02:58:42;21.30;;;12.30;;
57303;SDS011;43150;50.986;18.208;2023-02-15T03:01:13;23.50;;;14.90;;
57303;SDS011;43150;50.986;18.208;2023-02-15T03:03:41;20.80;;;15.00;;
57303;SDS011;43150;50.986;18.208;2023-02-15T03:06:10;23.10;;;15.00;;
57303;SDS011;43150;50.986;18.208;2023-02-15T03:08:42;20.70;;;14.40;;
57303;SDS011;43150;50.986;18.208;2023-02-15T03:11:08;24.30;;;16.20;;
57303;SDS011;43150;50.986;18.208;2023-02-15T03:13:35;19.40;;;14.00;;
57303;SDS011;43150;50.986;18.208;2023-02-15T03:16:01;21.30;;;13.50;;
57303;SDS011;43150;50.986;18.208;2023-02-15T03:18:46;23.80;;;15.30;;
57303;SDS011;43150;50.986;18.208;2023-02-15T03:21:29;20.00;;;13.40;;
57303;SDS011;43150;50.986;18.208;2023-02-15T03:23:57;21.00;;;14.50;;
57303;SDS011;43150;50.986;18.208;2023-02-15T03:26:28;21.20;;;13.10;;
57303;SDS011;43150;50.986;18.208;2023-02-15T03:28:55;21.80;;;14.70;;
57303;SDS011;43150;50.986;18.208;2023-02-15T03:31:23;20.80;;;13.90;;
57303;SDS011;43150;50.986;18.208;2023-02-15T03:33:55;19.80;;;14.30;;
57303;SDS011;43150;50.986;18.208;2023-02-15T03:36:22;20.20;;;12.60;;
57303;SDS011;43150;50.986;18.208;2023-02-15T03:38:57;19.60;;;14.50;;
57303;SDS011;43150;50.986;18.208;2023-02-15T03:41:26;18.70;;;13.80;;
57303;SDS011;43150;50.986;18.208;2023-02-15T03:44:00;18.00;;;12.90;;
57303;SDS011;43150;50.986;18.208;2023-02-15T03:46:31;19.10;;;13.70;;
57303;SDS011;43150;50.986;18.208;2023-02-15T03:49:08;18.70;;;14.20;;
57303;SDS011;43150;50.986;18.208;2023-02-15T03:51:36;19.30;;;13.90;;
57303;SDS011;43150;50.986;18.208;2023-02-15T03:54:10;22.20;;;14.40;;
57303;SDS011;43150;50.986;18.208;2023-02-15T03:56:39;21.50;;;13.40;;
57303;SDS011;43150;50.986;18.208;2023-02-15T03:59:06;20.60;;;14.20;;
57303;SDS011;43150;50.986;18.208;2023-02-15T04:06:52;19.00;;;12.70;;
57303;SDS011;43150;50.986;18.208;2023-02-15T04:09:18;17.00;;;11.90;;
57303;SDS011;43150;50.986;18.208;2023-02-15T04:12:02;25.00;;;14.80;;
57303;SDS011;43150;50.986;18.208;2023-02-15T04:14:27;19.40;;;13.40;;
57303;SDS011;43150;50.986;18.208;2023-02-15T04:17:12;17.90;;;12.80;;
57303;SDS011;43150;50.986;18.208;2023-02-15T04:19:38;15.60;;;11.50;;
57303;SDS011;43150;50.986;18.208;2023-02-15T04:22:22;16.70;;;11.90;;
57303;SDS011;43150;50.986;18.208;2023-02-15T04:25:06;17.80;;;11.70;;
57303;SDS011;43150;50.986;18.208;2023-02-15T04:27:36;17.20;;;11.70;;
57303;SDS011;43150;50.986;18.208;2023-02-15T04:30:03;15.90;;;12.50;;
57303;SDS011;43150;50.986;18.208;2023-02-15T04:32:29;19.10;;;12.00;;
57303;SDS011;43150;50.986;18.208;2023-02-15T04:34:54;16.10;;;11.00;;
57303;SDS011;43150;50.986;18.208;2023-02-15T04:37:20;17.80;;;11.70;;
57303;SDS011;43150;50.986;18.208;2023-02-15T04:39:47;15.10;;;10.90;;
57303;SDS011;43150;50.986;18.208;2023-02-15T04:42:13;16.30;;;11.90;;
57303;SDS011;43150;50.986;18.208;2023-02-15T04:44:38;17.20;;;12.00;;
57303;SDS011;43150;50.986;18.208;2023-02-15T04:47:04;17.60;;;12.40;;
57303;SDS011;43150;50.986;18.208;2023-02-15T04:49:29;17.00;;;12.80;;
57303;SDS011;43150;50.986;18.208;2023-02-15T04:51:55;18.70;;;14.00;;
57303;SDS011;43150;50.986;18.208;2023-02-15T04:54:20;17.60;;;13.90;;
57303;SDS011;43150;50.986;18.208;2023-02-15T04:56:46;18.70;;;13.40;;
57303;SDS011;43150;50.986;18.208;2023-02-15T04:59:12;22.60;;;14.80;;
57303;SDS011;43150;50.986;18.208;2023-02-15T05:01:37;21.30;;;15.50;;
57303;SDS011;43150;50.986;18.208;2023-02-15T05:04:03;20.10;;;13.20;;
57303;SDS011;43150;50.986;18.208;2023-02-15T05:06:29;19.60;;;14.50;;
57303;SDS011;43150;50.986;18.208;2023-02-15T05:08:55;18.60;;;14.00;;
57303;SDS011;43150;50.986;18.208;2023-02-15T05:11:20;18.30;;;14.50;;
57303;SDS011;43150;50.986;18.208;2023-02-15T05:13:46;23.80;;;15.70;;
57303;SDS011;43150;50.986;18.208;2023-02-15T05:16:11;23.30;;;16.00;;
57303;SDS011;43150;50.986;18.208;2023-02-15T05:18:37;21.10;;;15.20;;
57303;SDS011;43150;50.986;18.208;2023-02-15T05:21:03;20.40;;;13.40;;
57303;SDS011;43150;50.986;18.208;2023-02-15T05:23:29;19.00;;;13.30;;
57303;SDS011;43150;50.986;18.208;2023-02-15T05:25:55;18.20;;;13.50;;
57303;SDS011;43150;50.986;18.208;2023-02-15T05:28:38;16.90;;;12.60;;
57303;SDS011;43150;50.986;18.208;2023-02-15T05:31:11;18.90;;;14.50;;
57303;SDS011;43150;50.986;18.208;2023-02-15T05:33:37;21.10;;;15.00;;
57303;SDS011;43150;50.986;18.208;2023-02-15T05:36:03;20.90;;;15.50;;
57303;SDS011;43150;50.986;18.208;2023-02-15T05:38:30;20.90;;;14.20;;
57303;SDS011;43150;50.986;18.208;2023-02-15T05:40:55;22.30;;;14.90;;
57303;SDS011;43150;50.986;18.208;2023-02-15T05:43:21;22.30;;;15.20;;
57303;SDS011;43150;50.986;18.208;2023-02-15T05:45:47;23.00;;;16.50;;
57303;SDS011;43150;50.986;18.208;2023-02-15T05:48:13;21.50;;;15.50;;
57303;SDS011;43150;50.986;18.208;2023-02-15T05:50:39;21.20;;;14.40;;
57303;SDS011;43150;50.986;18.208;2023-02-15T05:53:19;24.50;;;16.00;;
57303;SDS011;43150;50.986;18.208;2023-02-15T05:55:45;21.70;;;14.60;;
57303;SDS011;43150;50.986;18.208;2023-02-15T05:58:10;22.00;;;15.50;;
57303;SDS011;43150;50.986;18.208;2023-02-15T06:00:36;23.30;;;16.30;;
57303;SDS011;43150;50.986;18.208;2023-02-15T06:03:01;23.80;;;16.80;;
57303;SDS011;43150;50.986;18.208;2023-02-15T06:05:27;23.80;;;16.50;;
57303;SDS011;43150;50.986;18.208;2023-02-15T06:07:52;26.10;;;16.60;;
57303;SDS011;43150;50.986;18.208;2023-02-15T06:10:18;23.10;;;15.90;;
57303;SDS011;43150;50.986;18.208;2023-02-15T06:12:44;28.20;;;17.20;;
57303;SDS011;43150;50.986;18.208;2023-02-15T06:15:09;25.10;;;17.80;;
57303;SDS011;43150;50.986;18.208;2023-02-15T06:17:35;27.80;;;19.20;;
57303;SDS011;43150;50.986;18.208;2023-02-15T06:20:00;23.70;;;16.30;;
57303;SDS011;43150;50.986;18.208;2023-02-15T06:22:26;27.30;;;17.70;;
57303;SDS011;43150;50.986;18.208;2023-02-15T06:24:51;27.50;;;18.60;;
57303;SDS011;43150;50.986;18.208;2023-02-15T06:27:17;26.20;;;17.80;;
57303;SDS011;43150;50.986;18.208;2023-02-15T06:29:42;26.70;;;17.70;;
57303;SDS011;43150;50.986;18.208;2023-02-15T06:32:08;28.90;;;17.70;;
57303;SDS011;43150;50.986;18.208;2023-02-15T06:34:34;28.90;;;19.20;;
57303;SDS011;43150;50.986;18.208;2023-02-15T06:37:00;26.50;;;18.60;;
57303;SDS011;43150;50.986;18.208;2023-02-15T06:39:25;27.70;;;18.20;;
57303;SDS011;43150;50.986;18.208;2023-02-15T06:41:51;24.70;;;17.00;;
57303;SDS011;43150;50.986;18.208;2023-02-15T06:44:19;30.10;;;19.00;;
57303;SDS011;43150;50.986;18.208;2023-02-15T06:46:44;29.90;;;20.30;;
57303;SDS011;43150;50.986;18.208;2023-02-15T06:49:10;32.40;;;20.20;;
57303;SDS011;43150;50.986;18.208;2023-02-15T06:51:35;26.70;;;18.30;;
57303;SDS011;43150;50.986;18.208;2023-02-15T06:54:01;30.30;;;18.30;;
57303;SDS011;43150;50.986;18.208;2023-02-15T06:56:29;28.90;;;21.50;;
57303;SDS011;43150;50.986;18.208;2023-02-15T06:58:55;27.10;;;18.20;;
57303;SDS011;43150;50.986;18.208;2023-02-15T07:01:21;28.10;;;17.10;;
57303;SDS011;43150;50.986;18.208;2023-02-15T07:03:47;26.90;;;18.00;;
57303;SDS011;43150;50.986;18.208;2023-02-15T07:06:13;26.50;;;19.40;;
57303;SDS011;43150;50.986;18.208;2023-02-15T07:08:38;24.20;;;17.50;;
57303;SDS011;43150;50.986;18.208;2023-02-15T07:11:05;32.00;;;19.50;;
57303;SDS011;43150;50.986;18.208;2023-02-15T07:13:50;30.80;;;19.40;;
57303;SDS011;43150;50.986;18.208;2023-02-15T07:16:21;28.70;;;17.70;;
57303;SDS011;43150;50.986;18.208;2023-02-15T07:18:46;23.00;;;16.60;;
57303;SDS011;43150;50.986;18.208;2023-02-15T07:21:12;25.20;;;17.40;;
57303;SDS011;43150;50.986;18.208;2023-02-15T07:23:38;26.40;;;18.00;;
57303;SDS011;43150;50.986;18.208;2023-02-15T07:26:04;26.00;;;17.60;;
57303;SDS011;43150;50.986;18.208;2023-02-15T07:28:30;25.10;;;17.60;;
57303;SDS011;43150;50.986;18.208;2023-02-15T07:30:56;29.40;;;19.00;;
57303;SDS011;43150;50.986;18.208;2023-02-15T07:33:23;28.00;;;19.10;;
57303;SDS011;43150;50.986;18.208;2023-02-15T07:35:55;24.90;;;17.50;;
57303;SDS011;43150;50.986;18.208;2023-02-15T07:38:24;27.00;;;18.90;;
57303;SDS011;43150;50.986;18.208;2023-02-15T07:40:50;24.30;;;18.60;;
57303;SDS011;43150;50.986;18.208;2023-02-15T07:43:16;28.80;;;20.60;;
57303;SDS011;43150;50.986;18.208;2023-02-15T07:45:42;25.80;;;18.90;;
57303;SDS011;43150;50.986;18.208;2023-02-15T07:48:07;28.40;;;19.20;;
57303;SDS011;43150;50.986;18.208;2023-02-15T07:50:36;29.80;;;19.80;;
57303;SDS011;43150;50.986;18.208;2023-02-15T07:53:02;28.70;;;19.00;;
57303;SDS011;43150;50.986;18.208;2023-02-15T07:55:27;27.30;;;18.60;;
57303;SDS011;43150;50.986;18.208;2023-02-15T07:57:53;29.00;;;19.90;;
57303;SDS011;43150;50.986;18.208;2023-02-15T08:00:19;29.20;;;20.30;;
57303;SDS011;43150;50.986;18.208;2023-02-15T08:02:49;25.50;;;19.50;;
57303;SDS011;43150;50.986;18.208;2023-02-15T08:05:39;33.00;;;20.50;;
57303;SDS011;43150;50.986;18.208;2023-02-15T08:08:06;28.60;;;19.20;;
57303;SDS011;43150;50.986;18.208;2023-02-15T08:10:32;29.40;;;21.80;;
57303;SDS011;43150;50.986;18.208;2023-02-15T08:13:24;29.90;;;20.50;;
57303;SDS011;43150;50.986;18.208;2023-02-15T08:15:50;30.40;;;20.10;;
57303;SDS011;43150;50.986;18.208;2023-02-15T08:18:15;29.40;;;20.10;;
57303;SDS011;43150;50.986;18.208;2023-02-15T08:20:41;28.10;;;19.40;;
57303;SDS011;43150;50.986;18.208;2023-02-15T08:23:06;28.90;;;20.60;;
57303;SDS011;43150;50.986;18.208;2023-02-15T08:25:32;29.80;;;21.10;;
57303;SDS011;43150;50.986;18.208;2023-02-15T08:27:57;31.50;;;21.60;;
57303;SDS011;43150;50.986;18.208;2023-02-15T08:30:23;32.90;;;21.80;;
57303;SDS011;43150;50.986;18.208;2023-02-15T08:32:48;33.20;;;21.70;;
57303;SDS011;43150;50.986;18.208;2023-02-15T08:35:14;32.30;;;22.20;;
57303;SDS011;43150;50.986;18.208;2023-02-15T08:37:39;30.10;;;21.20;;
57303;SDS011;43150;50.986;18.208;2023-02-15T08:40:05;34.40;;;22.20;;
57303;SDS011;43150;50.986;18.208;2023-02-15T08:42:34;32.00;;;22.20;;
57303;SDS011;43150;50.986;18.208;2023-02-15T08:45:00;36.10;;;23.10;;
57303;SDS011;43150;50.986;18.208;2023-02-15T08:47:26;36.70;;;24.80;;
57303;SDS011;43150;50.986;18.208;2023-02-15T08:49:51;38.60;;;25.30;;
57303;SDS011;43150;50.986;18.208;2023-02-15T08:52:17;36.50;;;22.70;;
57303;SDS011;43150;50.986;18.208;2023-02-15T08:54:42;34.90;;;23.30;;
57303;SDS011;43150;50.986;18.208;2023-02-15T08:57:08;33.90;;;22.50;;
57303;SDS011;43150;50.986;18.208;2023-02-15T08:59:35;33.20;;;23.00;;
57303;SDS011;43150;50.986;18.208;2023-02-15T09:02:01;32.30;;;21.80;;
57303;SDS011;43150;50.986;18.208;2023-02-15T09:04:26;31.90;;;22.40;;
57303;SDS011;43150;50.986;18.208;2023-02-15T09:06:52;35.50;;;22.40;;
57303;SDS011;43150;50.986;18.208;2023-02-15T09:09:21;39.10;;;23.40;;
57303;SDS011;43150;50.986;18.208;2023-02-15T09:11:48;42.40;;;24.90;;
57303;SDS011;43150;50.986;18.208;2023-02-15T09:14:15;44.20;;;25.10;;
57303;SDS011;43150;50.986;18.208;2023-02-15T09:16:45;42.00;;;26.80;;
57303;SDS011;43150;50.986;18.208;2023-02-15T09:19:14;41.10;;;25.90;;
57303;SDS011;43150;50.986;18.208;2023-02-15T09:21:40;44.60;;;26.30;;
57303;SDS011;43150;50.986;18.208;2023-02-15T09:24:07;44.20;;;26.70;;
57303;SDS011;43150;50.986;18.208;2023-02-15T09:26:34;48.70;;;26.60;;
57303;SDS011;43150;50.986;18.208;2023-02-15T09:29:01;49.20;;;28.00;;
57303;SDS011;43150;50.986;18.208;2023-02-15T09:31:27;47.60;;;27.20;;
57303;SDS011;43150;50.986;18.208;2023-02-15T09:33:53;47.70;;;29.60;;
57303;SDS011;43150;50.986;18.208;2023-02-15T09:36:23;43.50;;;26.20;;
57303;SDS011;43150;50.986;18.208;2023-02-15T09:39:00;46.10;;;27.50;;
57303;SDS011;43150;50.986;18.208;2023-02-15T09:48:57;42.00;;;27.70;;
57303;SDS011;43150;50.986;18.208;2023-02-15T09:51:43;42.70;;;26.10;;
57303;SDS011;43150;50.986;18.208;2023-02-15T09:56:44;42.00;;;26.70;;
57303;SDS011;43150;50.986;18.208;2023-02-15T09:59:13;36.80;;;32.60;;
57303;SDS011;43150;50.986;18.208;2023-02-15T10:01:48;37.70;;;33.60;;
57303;SDS011;43150;50.986;18.208;2023-02-15T10:07:06;34.60;;;30.40;;
57303;SDS011;43150;50.986;18.208;2023-02-15T10:12:19;35.00;;;31.20;;
57303;SDS011;43150;50.986;18.208;2023-02-15T10:25:51;30.70;;;27.40;;
57303;SDS011;43150;50.986;18.208;2023-02-15T10:28:18;31.30;;;28.10;;
57303;SDS011;43150;50.986;18.208;2023-02-15T10:33:30;31.60;;;28.50;;
57303;SDS011;43150;50.986;18.208;2023-02-15T10:41:09;29.90;;;27.00;;
57303;SDS011;43150;50.986;18.208;2023-02-15T10:44:13;31.20;;;28.20;;
57303;SDS011;43150;50.986;18.208;2023-02-15T10:49:23;30.10;;;27.20;;
57303;SDS011;43150;50.986;18.208;2023-02-15T10:52:02;29.20;;;26.20;;
57303;SDS011;43150;50.986;18.208;2023-02-15T10:57:09;29.50;;;26.60;;
57303;SDS011;43150;50.986;18.208;2023-02-15T11:04:53;30.40;;;27.40;;
57303;SDS011;43150;50.986;18.208;2023-02-15T11:09:56;29.70;;;26.70;;
57303;SDS011;43150;50.986;18.208;2023-02-15T11:12:26;29.10;;;26.20;;
57303;SDS011;43150;50.986;18.208;2023-02-15T11:17:42;28.40;;;25.60;;
57303;SDS011;43150;50.986;18.208;2023-02-15T11:22:46;32.30;;;29.10;;
57303;SDS011;43150;50.986;18.208;2023-02-15T11:25:17;30.90;;;28.00;;
57303;SDS011;43150;50.986;18.208;2023-02-15T11:27:45;29.90;;;27.10;;
57303;SDS011;43150;50.986;18.208;2023-02-15T11:30:19;31.50;;;28.40;;
57303;SDS011;43150;50.986;18.208;2023-02-15T11:32:47;28.80;;;25.90;;
57303;SDS011;43150;50.986;18.208;2023-02-15T11:35:29;30.90;;;27.90;;
57303;SDS011;43150;50.986;18.208;2023-02-15T11:42:48;28.90;;;26.10;;
57303;SDS011;43150;50.986;18.208;2023-02-15T11:45:26;29.00;;;26.20;;
57303;SDS011;43150;50.986;18.208;2023-02-15T11:47:52;29.00;;;26.10;;
57303;SDS011;43150;50.986;18.208;2023-02-15T11:50:22;29.60;;;26.80;;
57303;SDS011;43150;50.986;18.208;2023-02-15T11:52:49;30.00;;;27.10;;
57303;SDS011;43150;50.986;18.208;2023-02-15T11:55:17;28.70;;;25.80;;
57303;SDS011;43150;50.986;18.208;2023-02-15T11:57:45;29.70;;;26.80;;
57303;SDS011;43150;50.986;18.208;2023-02-15T12:05:57;27.70;;;25.00;;
57303;SDS011;43150;50.986;18.208;2023-02-15T12:08:25;27.30;;;24.70;;
57303;SDS011;43150;50.986;18.208;2023-02-15T12:10:58;26.90;;;24.40;;
57303;SDS011;43150;50.986;18.208;2023-02-15T12:13:26;27.30;;;24.70;;
57303;SDS011;43150;50.986;18.208;2023-02-15T12:15:53;26.90;;;24.20;;
57303;SDS011;43150;50.986;18.208;2023-02-15T12:18:33;24.50;;;22.20;;
57303;SDS011;43150;50.986;18.208;2023-02-15T12:21:05;24.50;;;22.00;;
57303;SDS011;43150;50.986;18.208;2023-02-15T12:23:30;23.10;;;21.00;;
57303;SDS011;43150;50.986;18.208;2023-02-15T12:25:57;25.60;;;23.00;;
57303;SDS011;43150;50.986;18.208;2023-02-15T12:30:48;23.80;;;21.50;;
57303;SDS011;43150;50.986;18.208;2023-02-15T12:33:15;23.20;;;21.10;;
57303;SDS011;43150;50.986;18.208;2023-02-15T12:35:42;23.50;;;21.30;;
57303;SDS011;43150;50.986;18.208;2023-02-15T12:40:35;25.80;;;23.40;;
57303;SDS011;43150;50.986;18.208;2023-02-15T12:43:04;26.50;;;23.90;;
57303;SDS011;43150;50.986;18.208;2023-02-15T12:45:37;23.50;;;21.10;;
57303;SDS011;43150;50.986;18.208;2023-02-15T12:50:38;25.70;;;23.30;;
57303;SDS011;43150;50.986;18.208;2023-02-15T12:53:06;26.80;;;24.10;;
57303;SDS011;43150;50.986;18.208;2023-02-15T12:55:33;25.90;;;23.40;;
57303;SDS011;43150;50.986;18.208;2023-02-15T12:58:05;27.40;;;24.80;;
57303;SDS011;43150;50.986;18.208;2023-02-15T13:00:31;28.90;;;26.00;;
57303;SDS011;43150;50.986;18.208;2023-02-15T13:03:00;27.50;;;24.80;;
57303;SDS011;43150;50.986;18.208;2023-02-15T13:05:40;29.30;;;26.40;;
57303;SDS011;43150;50.986;18.208;2023-02-15T13:08:10;28.30;;;25.50;;
57303;SDS011;43150;50.986;18.208;2023-02-15T13:10:42;30.20;;;27.20;;
57303;SDS011;43150;50.986;18.208;2023-02-15T13:13:11;27.10;;;24.40;;
57303;SDS011;43150;50.986;18.208;2023-02-15T13:15:46;32.50;;;29.30;;
57303;SDS011;43150;50.986;18.208;2023-02-15T13:18:16;28.10;;;25.20;;
57303;SDS011;43150;50.986;18.208;2023-02-15T13:20:42;28.70;;;26.00;;
57303;SDS011;43150;50.986;18.208;2023-02-15T13:23:20;27.50;;;24.90;;
57303;SDS011;43150;50.986;18.208;2023-02-15T13:25:46;26.70;;;24.10;;
57303;SDS011;43150;50.986;18.208;2023-02-15T13:28:16;28.70;;;25.90;;
57303;SDS011;43150;50.986;18.208;2023-02-15T13:30:43;30.30;;;27.10;;
57303;SDS011;43150;50.986;18.208;2023-02-15T13:33:17;29.00;;;26.10;;
57303;SDS011;43150;50.986;18.208;2023-02-15T13:35:54;34.70;;;31.00;;
57303;SDS011;43150;50.986;18.208;2023-02-15T13:40:48;27.20;;;24.50;;
57303;SDS011;43150;50.986;18.208;2023-02-15T13:43:20;27.20;;;24.40;;
57303;SDS011;43150;50.986;18.208;2023-02-15T13:46:01;25.70;;;23.10;;
57303;SDS011;43150;50.986;18.208;2023-02-15T14:01:10;28.00;;;25.20;;
57303;SDS011;43150;50.986;18.208;2023-02-15T14:13:58;36.70;;;33.30;;
57303;SDS011;43150;50.986;18.208;2023-02-15T14:21:34;36.20;;;32.60;;
57303;SDS011;43150;50.986;18.208;2023-02-15T14:29:48;29.30;;;26.30;;
57303;SDS011;43150;50.986;18.208;2023-02-15T14:32:23;31.50;;;28.30;;
57303;SDS011;43150;50.986;18.208;2023-02-15T14:34:57;33.40;;;29.90;;
57303;SDS011;43150;50.986;18.208;2023-02-15T14:40:26;31.60;;;28.50;;
57303;SDS011;43150;50.986;18.208;2023-02-15T14:43:21;32.90;;;29.50;;
57303;SDS011;43150;50.986;18.208;2023-02-15T14:45:52;34.70;;;31.00;;
57303;SDS011;43150;50.986;18.208;2023-02-15T14:48:21;34.80;;;31.20;;
57303;SDS011;43150;50.986;18.208;2023-02-15T14:50:49;34.40;;;30.90;;
57303;SDS011;43150;50.986;18.208;2023-02-15T14:53:32;37.00;;;33.50;;
57303;SDS011;43150;50.986;18.208;2023-02-15T14:58:38;33.20;;;30.00;;
57303;SDS011;43150;50.986;18.208;2023-02-15T15:01:27;33.60;;;30.20;;
57303;SDS011;43150;50.986;18.208;2023-02-15T15:06:41;31.70;;;28.60;;
57303;SDS011;43150;50.986;18.208;2023-02-15T15:09:14;32.20;;;29.00;;
57303;SDS011;43150;50.986;18.208;2023-02-15T15:11:46;31.00;;;27.80;;
57303;SDS011;43150;50.986;18.208;2023-02-15T15:16:58;31.70;;;28.40;;
57303;SDS011;43150;50.986;18.208;2023-02-15T15:22:25;27.10;;;24.20;;
57303;SDS011;43150;50.986;18.208;2023-02-15T15:24:54;29.00;;;26.00;;
57303;SDS011;43150;50.986;18.208;2023-02-15T15:50:15;45.50;;;35.40;;
57303;SDS011;43150;50.986;18.208;2023-02-15T15:52:44;50.90;;;42.40;;
57303;SDS011;43150;50.986;18.208;2023-02-15T15:55:19;39.40;;;33.20;;
57303;SDS011;43150;50.986;18.208;2023-02-15T15:57:46;45.00;;;22.80;;
57303;SDS011;43150;50.986;18.208;2023-02-15T16:00:33;48.30;;;25.10;;
57303;SDS011;43150;50.986;18.208;2023-02-15T16:02:59;52.20;;;28.40;;
57303;SDS011;43150;50.986;18.208;2023-02-15T16:05:25;70.80;;;32.40;;
57303;SDS011;43150;50.986;18.208;2023-02-15T16:07:50;104.50;;;45.80;;
57303;SDS011;43150;50.986;18.208;2023-02-15T16:10:27;125.80;;;49.20;;
57303;SDS011;43150;50.986;18.208;2023-02-15T16:12:53;86.80;;;38.30;;
57303;SDS011;43150;50.986;18.208;2023-02-15T16:15:23;159.80;;;53.30;;
57303;SDS011;43150;50.986;18.208;2023-02-15T16:17:51;116.80;;;47.50;;
57303;SDS011;43150;50.986;18.208;2023-02-15T16:20:23;57.00;;;30.70;;
57303;SDS011;43150;50.986;18.208;2023-02-15T16:22:52;72.30;;;34.80;;
57303;SDS011;43150;50.986;18.208;2023-02-15T16:25:31;56.30;;;30.30;;
57303;SDS011;43150;50.986;18.208;2023-02-15T16:28:05;92.60;;;38.50;;
57303;SDS011;43150;50.986;18.208;2023-02-15T16:30:32;121.10;;;42.90;;
57303;SDS011;43150;50.986;18.208;2023-02-15T16:33:12;146.50;;;54.90;;
57303;SDS011;43150;50.986;18.208;2023-02-15T16:35:40;79.80;;;39.50;;
57303;SDS011;43150;50.986;18.208;2023-02-15T16:38:09;93.70;;;42.70;;
57303;SDS011;43150;50.986;18.208;2023-02-15T16:40:38;104.60;;;51.90;;
57303;SDS011;43150;50.986;18.208;2023-02-15T16:43:10;76.30;;;43.40;;
57303;SDS011;43150;50.986;18.208;2023-02-15T16:45:38;59.20;;;34.00;;
57303;SDS011;43150;50.986;18.208;2023-02-15T16:48:10;62.00;;;34.30;;
57303;SDS011;43150;50.986;18.208;2023-02-15T16:50:38;50.80;;;31.90;;
57303;SDS011;43150;50.986;18.208;2023-02-15T16:53:05;61.40;;;34.20;;
57303;SDS011;43150;50.986;18.208;2023-02-15T16:55:38;72.90;;;35.80;;
57303;SDS011;43150;50.986;18.208;2023-02-15T16:58:05;57.70;;;33.00;;
57303;SDS011;43150;50.986;18.208;2023-02-15T17:00:33;51.10;;;28.40;;
57303;SDS011;43150;50.986;18.208;2023-02-15T17:06:16;46.90;;;27.70;;
57303;SDS011;43150;50.986;18.208;2023-02-15T17:13:33;48.30;;;26.20;;
57303;SDS011;43150;50.986;18.208;2023-02-15T17:18:48;57.10;;;28.30;;
57303;SDS011;43150;50.986;18.208;2023-02-15T17:21:16;58.60;;;28.80;;